首页
METAR-TAF:

METAR-TAF

机场 :

Hawarden, 威尔士

纬度: 53-10N, 经度: 002-59W, 海拔: 10米

当前天气观测

该预报发布于36分钟前的10:20 UTC
风速11节,风向西转西南
温度 19°C
湿度 78%
气压 1021 hPa
能见度10公里或以上
散云层高于1200英尺
多云层高于2600英尺

METAR: EGNR 131020Z 25011KT 9999 SCT012 BKN026 19/15 Q1021

时间: 11:56 (10:56 UTC)

预报

该预报发布于2小时和55分钟前的08:01 UTC
预报有效从13日的 09点(UTC)到 13日的 18点(UTC)
风速7节,风向南转西南
能见度10公里或以上
少量云层高于2500英尺
短暂存在
从 13日的 09点(UTC)到 13日的 18点(UTC)
能見度: 8000
多云层高于1200英尺
几率 30% :
短暂存在
从 13日的 09点(UTC)到 13日的 15点(UTC)
能見度: 4000
多云层高于500英尺
雨, 毛毛雨
成为
从 13日的 13点(UTC)到 13日的 16点(UTC)
风速10节,风向西

TAF: EGNR 130801Z 1309/1318 20007KT 9999 FEW025 TEMPO 1309/1318 8000 RA BKN012 PROB30 TEMPO 1309/1315 4000 RADZ BKN005 BECMG 1313/1316 26010KT

超过4000个机场的气象观测和天气预报(METAR&TAF报告)。

可查询的气象台以黄色和红色小点在地图上表示。

将鼠标移到小点上方,可查看气象台名称。

然后点击查看天气观测和预报。

如需切换地图:点击带黑十字的绿色按钮放大地图;点击带横线的绿色按钮缩小地图;或者点击绿色箭头查看邻近地区的地图。


METAR-TAF: